createdAt,value
2019-05-19T00:01:10.410Z,7.95
2019-05-19T00:03:39.405Z,9.18
2019-05-19T00:06:08.726Z,11.85
2019-05-19T00:08:37.720Z,7.40
2019-05-19T00:13:35.393Z,8.50
2019-05-19T00:16:05.504Z,8.93
2019-05-19T00:18:34.739Z,8.20
2019-05-19T00:23:34.391Z,8.33
2019-05-19T00:26:04.073Z,8.15
2019-05-19T00:28:33.563Z,10.15
2019-05-19T00:31:03.304Z,10.65
2019-05-19T00:33:33.036Z,9.50
2019-05-19T00:36:02.955Z,12.45
2019-05-19T00:38:32.491Z,11.30
2019-05-19T00:41:02.313Z,9.43
2019-05-19T00:44:59.049Z,9.25
2019-05-19T00:47:29.106Z,10.00
2019-05-19T00:49:57.924Z,9.55
2019-05-19T00:52:47.503Z,8.60
2019-05-19T00:55:16.479Z,9.05
2019-05-19T00:57:47.526Z,8.75
2019-05-19T01:00:17.129Z,13.15
2019-05-19T01:02:46.448Z,10.08
2019-05-19T01:05:15.556Z,12.07
2019-05-19T01:07:44.581Z,10.20
2019-05-19T01:10:13.859Z,9.80
2019-05-19T01:12:42.716Z,10.58
2019-05-19T01:15:11.899Z,11.43
2019-05-19T01:17:40.711Z,9.70
2019-05-19T01:22:38.940Z,10.58
2019-05-19T01:25:08.698Z,10.10
2019-05-19T01:30:07.891Z,9.58
2019-05-19T01:32:37.004Z,8.83
2019-05-19T01:35:06.400Z,9.43
2019-05-19T01:37:35.501Z,10.30
2019-05-19T01:40:05.546Z,10.30
2019-05-19T01:42:34.469Z,10.60
2019-05-19T01:45:04.529Z,8.93
2019-05-19T01:47:33.389Z,8.55
2019-05-19T01:50:16.854Z,8.70
2019-05-19T01:52:33.407Z,7.47
2019-05-19T01:55:02.570Z,8.65
2019-05-19T01:57:32.584Z,8.88
2019-05-19T02:00:01.914Z,9.05
2019-05-19T02:02:32.525Z,11.97
2019-05-19T02:05:01.718Z,11.08
2019-05-19T02:07:30.726Z,9.60
2019-05-19T02:12:27.700Z,10.43
2019-05-19T02:17:24.928Z,9.80
2019-05-19T02:19:53.750Z,11.38
2019-05-19T02:24:50.794Z,11.18
2019-05-19T02:27:20.018Z,11.45
2019-05-19T02:29:49.036Z,13.43
2019-05-19T02:32:18.080Z,12.65
2019-05-19T02:34:46.904Z,12.30
2019-05-19T02:37:15.698Z,11.00
2019-05-19T02:42:15.950Z,14.33
2019-05-19T02:44:49.806Z,15.80
2019-05-19T02:47:22.293Z,12.33
2019-05-19T02:49:54.556Z,13.83
2019-05-19T02:52:25.742Z,15.03
2019-05-19T02:57:23.785Z,14.80
2019-05-19T02:59:53.288Z,16.57
2019-05-19T03:02:22.089Z,14.65
2019-05-19T03:04:50.914Z,13.43
2019-05-19T03:07:19.772Z,15.48
2019-05-19T03:09:49.337Z,14.13
2019-05-19T03:12:18.465Z,14.80
2019-05-19T03:14:47.499Z,15.60
2019-05-19T03:17:17.561Z,15.08
2019-05-19T03:19:46.846Z,18.67
2019-05-19T03:22:15.716Z,16.15
2019-05-19T03:28:51.571Z,14.70
2019-05-19T03:31:36.433Z,15.23
2019-05-19T03:34:05.422Z,16.42
2019-05-19T03:36:34.483Z,15.43
2019-05-19T03:39:07.580Z,14.33
2019-05-19T03:41:36.895Z,16.57
2019-05-19T03:44:06.049Z,15.60
2019-05-19T03:46:35.025Z,15.18
2019-05-19T03:49:04.116Z,14.63
2019-05-19T03:51:33.087Z,15.13
2019-05-19T03:54:01.928Z,16.97
2019-05-19T03:56:31.924Z,14.83
2019-05-19T03:59:01.045Z,15.90
2019-05-19T04:01:30.306Z,16.25
2019-05-19T04:03:59.495Z,16.62
2019-05-19T04:06:28.451Z,15.60
2019-05-19T04:08:57.551Z,14.58
2019-05-19T04:11:26.690Z,17.05
2019-05-19T04:16:24.016Z,15.85
2019-05-19T04:18:52.902Z,14.68
2019-05-19T04:21:21.923Z,14.70
2019-05-19T04:23:50.905Z,16.62
2019-05-19T04:29:06.911Z,16.10
2019-05-19T04:31:36.043Z,15.38
2019-05-19T04:34:05.546Z,15.98
2019-05-19T04:36:34.943Z,13.28
2019-05-19T04:39:06.564Z,12.03
2019-05-19T04:41:39.859Z,12.95
2019-05-19T04:44:06.887Z,10.82
2019-05-19T04:46:36.147Z,11.30
2019-05-19T04:49:05.299Z,10.90
2019-05-19T04:51:34.656Z,12.43
2019-05-19T04:54:03.902Z,9.40
2019-05-19T04:56:32.741Z,11.45
2019-05-19T04:59:02.841Z,9.38
2019-05-19T05:01:31.945Z,10.13
2019-05-19T05:04:00.701Z,9.13
2019-05-19T05:08:57.704Z,10.00
2019-05-19T05:13:55.397Z,10.13
2019-05-19T05:16:25.414Z,9.23
2019-05-19T05:18:54.443Z,9.60
2019-05-19T05:21:23.429Z,9.88
2019-05-19T05:23:52.435Z,9.13
2019-05-19T05:26:21.390Z,10.55
2019-05-19T05:28:50.376Z,9.78
2019-05-19T05:31:19.300Z,8.43
2019-05-19T05:33:48.048Z,8.58
2019-05-19T05:36:17.015Z,6.60
2019-05-19T05:38:46.062Z,6.97
2019-05-19T05:41:15.296Z,8.05
2019-05-19T05:43:44.417Z,6.20
2019-05-19T05:46:13.411Z,6.40
2019-05-19T05:48:42.583Z,6.70
2019-05-19T05:51:11.564Z,8.58
2019-05-19T05:53:40.390Z,7.72
2019-05-19T05:56:09.393Z,7.60
2019-05-19T05:58:38.420Z,9.88
2019-05-19T06:01:07.538Z,8.73
2019-05-19T06:03:36.519Z,7.62
2019-05-19T06:06:06.725Z,7.30
2019-05-19T06:08:36.465Z,8.40
2019-05-19T06:11:05.986Z,7.87
2019-05-19T06:13:35.547Z,7.87
2019-05-19T06:16:04.863Z,7.00
2019-05-19T06:18:34.484Z,8.55
2019-05-19T06:21:03.990Z,8.28
2019-05-19T06:23:33.625Z,9.90
2019-05-19T06:28:31.950Z,8.43
2019-05-19T06:31:00.766Z,10.28
2019-05-19T06:35:57.893Z,9.48
2019-05-19T06:38:27.140Z,9.70
2019-05-19T06:40:56.059Z,9.55
2019-05-19T06:43:25.468Z,9.75
2019-05-19T06:45:54.495Z,9.85
2019-05-19T06:48:23.511Z,8.48
2019-05-19T06:50:52.723Z,10.55
2019-05-19T06:55:50.235Z,9.60
2019-05-19T06:58:19.453Z,8.15
2019-05-19T07:00:48.686Z,10.25
2019-05-19T07:03:17.806Z,9.70
2019-05-19T07:05:46.718Z,10.18
2019-05-19T07:10:44.114Z,9.70
2019-05-19T07:14:17.971Z,10.98
2019-05-19T07:16:48.693Z,12.03
2019-05-19T07:19:17.781Z,12.73
2019-05-19T07:24:15.082Z,10.95
2019-05-19T07:26:45.072Z,14.20
2019-05-19T07:29:13.915Z,14.13
2019-05-19T07:31:43.058Z,12.37
2019-05-19T07:34:12.059Z,11.80
2019-05-19T07:36:42.433Z,13.78
2019-05-19T07:39:11.430Z,13.72
2019-05-19T07:41:40.413Z,14.68
2019-05-19T07:44:09.407Z,14.65
2019-05-19T07:46:38.512Z,13.15
2019-05-19T07:49:07.400Z,14.70
2019-05-19T07:51:36.899Z,13.65
2019-05-19T07:54:06.703Z,12.82
2019-05-19T07:59:07.921Z,14.47
2019-05-19T08:01:36.922Z,13.22
2019-05-19T08:04:06.504Z,12.93
2019-05-19T08:06:35.501Z,14.20
2019-05-19T08:09:05.817Z,12.75
2019-05-19T08:11:36.055Z,13.50
2019-05-19T08:14:22.555Z,11.12
2019-05-19T08:19:20.615Z,10.60
2019-05-19T08:21:49.256Z,9.75
2019-05-19T08:24:17.902Z,10.18
2019-05-19T08:26:46.913Z,8.58
2019-05-19T08:29:15.715Z,9.58
2019-05-19T08:34:12.967Z,7.90
2019-05-19T08:36:41.916Z,6.60
2019-05-19T08:39:10.714Z,8.25
2019-05-19T08:44:07.983Z,8.05
2019-05-19T08:46:37.463Z,6.92
2019-05-19T08:49:07.525Z,7.97
2019-05-19T08:53:30.070Z,7.15
2019-05-19T08:55:58.922Z,8.65
2019-05-19T08:58:27.939Z,8.05
2019-05-19T09:00:57.109Z,8.10
2019-05-19T09:03:26.439Z,7.15
2019-05-19T09:05:55.740Z,8.98
2019-05-19T09:10:53.427Z,6.60
2019-05-19T09:13:22.490Z,6.50
2019-05-19T09:15:52.455Z,7.78
2019-05-19T09:18:21.735Z,11.10
2019-05-19T09:23:19.443Z,6.83
2019-05-19T09:25:48.559Z,6.95
2019-05-19T09:28:17.722Z,7.08
2019-05-19T09:30:46.937Z,5.50
2019-05-19T09:33:17.448Z,7.67
2019-05-19T09:35:46.486Z,7.35
2019-05-19T09:40:43.950Z,6.78
2019-05-19T09:43:13.102Z,6.08
2019-05-19T09:45:42.046Z,7.25
2019-05-19T09:48:11.095Z,8.25
2019-05-19T09:50:40.062Z,6.12
2019-05-19T09:53:09.416Z,5.58
2019-05-19T09:55:38.430Z,5.47
2019-05-19T09:58:08.032Z,6.25
2019-05-19T10:00:37.558Z,6.80
2019-05-19T10:03:07.072Z,7.33
2019-05-19T10:05:36.585Z,6.37
2019-05-19T10:08:06.224Z,5.83
2019-05-19T10:11:47.865Z,5.90
2019-05-19T10:14:17.500Z,7.40
2019-05-19T10:16:46.944Z,7.35
2019-05-19T10:19:15.929Z,6.72
2019-05-19T10:21:44.935Z,7.75
2019-05-19T10:24:14.307Z,6.85
2019-05-19T10:26:43.802Z,6.10
2019-05-19T10:29:13.160Z,6.65
2019-05-19T10:31:42.408Z,6.62
2019-05-19T10:36:41.066Z,8.15
2019-05-19T10:39:10.574Z,6.47
2019-05-19T10:41:40.442Z,5.97
2019-05-19T10:44:09.375Z,6.85
2019-05-19T10:46:38.941Z,6.80
2019-05-19T10:49:08.740Z,7.15
2019-05-19T10:54:07.709Z,6.20
2019-05-19T10:59:07.011Z,5.78
2019-05-19T11:01:36.822Z,6.67
2019-05-19T11:04:06.723Z,6.97
2019-05-19T11:06:36.067Z,6.12
2019-05-19T11:09:08.406Z,5.47
2019-05-19T11:11:38.302Z,5.35
2019-05-19T11:14:07.959Z,5.50
2019-05-19T11:16:38.054Z,6.62
2019-05-19T11:19:08.114Z,4.67
2019-05-19T11:21:37.219Z,5.83
2019-05-19T11:24:06.916Z,5.03
2019-05-19T11:26:37.302Z,5.17
2019-05-19T11:29:08.386Z,5.35
2019-05-19T11:31:37.834Z,5.72
2019-05-19T11:34:10.549Z,5.20
2019-05-19T11:36:39.554Z,5.25
2019-05-19T11:39:09.864Z,6.35
2019-05-19T11:41:39.488Z,4.20
2019-05-19T11:44:08.682Z,5.05
2019-05-19T11:46:38.530Z,4.60
2019-05-19T11:49:08.830Z,4.10
2019-05-19T11:51:38.717Z,3.40
2019-05-19T11:54:08.102Z,4.70
2019-05-19T11:56:37.589Z,4.65
2019-05-19T11:59:06.633Z,5.22
2019-05-19T12:04:04.424Z,4.95
2019-05-19T12:06:39.262Z,4.12
2019-05-19T12:09:07.715Z,5.37
2019-05-19T12:11:37.506Z,4.05
2019-05-19T12:14:07.549Z,4.53
2019-05-19T12:19:07.293Z,3.80
2019-05-19T12:21:37.160Z,4.83
2019-05-19T12:24:06.699Z,4.17
2019-05-19T12:29:05.520Z,4.30
2019-05-19T12:31:34.558Z,4.42
2019-05-19T12:36:31.951Z,4.15
2019-05-19T12:39:00.979Z,5.35
2019-05-19T12:41:30.463Z,4.25
2019-05-19T12:43:59.472Z,4.90
2019-05-19T12:46:28.562Z,4.47
2019-05-19T12:51:26.891Z,4.40
2019-05-19T12:53:56.445Z,3.75
2019-05-19T12:56:38.640Z,5.83
2019-05-19T12:58:56.559Z,5.95
2019-05-19T13:01:25.530Z,4.83
2019-05-19T13:03:54.742Z,4.40
2019-05-19T13:06:23.951Z,4.92
2019-05-19T13:08:52.915Z,3.75
2019-05-19T13:11:22.135Z,4.40
2019-05-19T13:13:51.548Z,5.80
2019-05-19T13:16:20.425Z,4.20
2019-05-19T13:18:49.413Z,3.67
2019-05-19T13:21:18.757Z,4.60
2019-05-19T13:23:47.955Z,4.47
2019-05-19T13:26:16.954Z,3.83
2019-05-19T13:28:45.947Z,4.78
2019-05-19T13:31:14.952Z,4.45
2019-05-19T13:33:43.941Z,4.28
2019-05-19T13:36:13.000Z,4.47
2019-05-19T13:38:42.421Z,4.67
2019-05-19T13:41:11.448Z,5.47
2019-05-19T13:43:40.436Z,5.33
2019-05-19T13:46:09.956Z,5.90
2019-05-19T13:48:39.586Z,4.45
2019-05-19T13:51:12.089Z,4.28
2019-05-19T13:53:40.959Z,3.67
2019-05-19T13:56:10.067Z,4.08
2019-05-19T13:58:39.883Z,3.90
2019-05-19T14:01:09.481Z,3.83
2019-05-19T14:03:39.069Z,4.67
2019-05-19T14:06:09.281Z,5.08
2019-05-19T14:08:40.590Z,4.20
2019-05-19T14:11:10.298Z,6.37
2019-05-19T14:13:39.941Z,4.25
2019-05-19T14:16:09.613Z,4.53
2019-05-19T14:18:39.605Z,4.30
2019-05-19T14:21:09.126Z,5.15
2019-05-19T14:23:38.588Z,5.10
2019-05-19T14:26:08.023Z,5.08
2019-05-19T14:28:37.539Z,5.33
2019-05-19T14:31:07.601Z,4.37
2019-05-19T14:33:37.931Z,4.95
2019-05-19T14:36:07.751Z,4.85
2019-05-19T14:41:05.013Z,4.00
2019-05-19T14:43:34.550Z,4.20
2019-05-19T14:46:03.560Z,4.90
2019-05-19T14:48:32.568Z,4.72
2019-05-19T14:51:01.574Z,4.22
2019-05-19T14:56:00.442Z,6.00
2019-05-19T14:58:29.595Z,4.00
2019-05-19T15:00:58.579Z,4.60
2019-05-19T15:03:27.734Z,5.17
2019-05-19T15:05:56.773Z,5.90
2019-05-19T15:10:54.473Z,5.60
2019-05-19T15:13:23.760Z,3.72
2019-05-19T15:15:52.795Z,4.25
2019-05-19T15:18:22.094Z,4.37
2019-05-19T15:20:51.283Z,5.87
2019-05-19T15:23:20.316Z,3.92
2019-05-19T15:25:49.125Z,4.85
2019-05-19T15:28:18.114Z,3.20
2019-05-19T15:30:47.498Z,3.72
2019-05-19T15:33:16.758Z,4.20
2019-05-19T15:40:43.304Z,4.55
2019-05-19T15:43:12.603Z,3.98
2019-05-19T15:45:41.773Z,4.33
2019-05-19T15:48:11.137Z,4.08
2019-05-19T15:50:40.951Z,4.47
2019-05-19T15:53:12.521Z,11.28
2019-05-19T15:56:00.223Z,11.68
2019-05-19T15:58:30.463Z,8.93
2019-05-19T16:00:59.122Z,8.33
2019-05-19T16:03:27.538Z,6.40
2019-05-19T16:05:55.882Z,7.95
2019-05-19T16:08:24.408Z,11.18
2019-05-19T16:10:52.920Z,7.70
2019-05-19T16:15:49.531Z,8.60
2019-05-19T16:18:21.718Z,11.95
2019-05-19T16:23:19.012Z,16.25
2019-05-19T16:25:49.738Z,11.35
2019-05-19T16:30:49.335Z,16.07
2019-05-19T16:33:18.113Z,16.73
2019-05-19T16:35:47.972Z,10.20
2019-05-19T16:38:16.998Z,7.28
2019-05-19T16:40:48.102Z,7.37
2019-05-19T16:43:17.314Z,4.40
2019-05-19T16:45:47.759Z,7.20
2019-05-19T16:48:17.110Z,9.48
2019-05-19T16:50:46.621Z,8.65
2019-05-19T16:53:17.437Z,11.48
2019-05-19T16:55:46.781Z,14.40
2019-05-19T16:58:20.974Z,21.17
2019-05-19T17:00:47.013Z,9.80
2019-05-19T17:03:16.319Z,14.35
2019-05-19T17:05:45.601Z,13.05
2019-05-19T17:10:43.183Z,16.02
2019-05-19T17:13:12.585Z,12.60
2019-05-19T17:15:41.565Z,11.90
2019-05-19T17:18:11.006Z,12.43
2019-05-19T17:20:40.486Z,13.20
2019-05-19T17:23:09.774Z,10.20
2019-05-19T17:28:08.922Z,17.67
2019-05-19T17:30:39.633Z,15.30
2019-05-19T17:33:11.573Z,11.40
2019-05-19T17:38:11.072Z,18.00
2019-05-19T17:40:40.878Z,16.90
2019-05-19T17:43:09.811Z,15.90
2019-05-19T17:45:39.307Z,11.03
2019-05-19T17:48:10.294Z,11.08
2019-05-19T17:50:39.522Z,9.10
2019-05-19T17:53:09.546Z,9.88
2019-05-19T17:55:39.130Z,11.88
2019-05-19T17:58:08.420Z,13.70
2019-05-19T18:00:39.987Z,11.18
2019-05-19T18:03:10.021Z,12.37
2019-05-19T18:05:40.303Z,14.23
2019-05-19T18:08:10.008Z,12.98
2019-05-19T18:10:40.129Z,11.53
2019-05-19T18:13:09.740Z,13.72
2019-05-19T18:18:08.455Z,15.20
2019-05-19T18:20:37.581Z,12.73
2019-05-19T18:23:06.816Z,13.40
2019-05-19T18:25:35.905Z,15.23
2019-05-19T18:28:05.013Z,16.90
2019-05-19T18:30:34.070Z,16.35
2019-05-19T18:33:03.202Z,15.08
2019-05-19T18:35:35.607Z,20.15
2019-05-19T18:38:04.558Z,17.87
2019-05-19T18:43:03.140Z,20.17
2019-05-19T18:45:32.528Z,23.40
2019-05-19T18:48:01.777Z,20.65
2019-05-19T18:52:59.456Z,19.10
2019-05-19T18:55:28.639Z,16.37
2019-05-19T19:00:38.894Z,11.28
2019-05-19T19:03:08.959Z,11.08
2019-05-19T19:05:38.179Z,12.43
2019-05-19T19:08:07.484Z,13.08
2019-05-19T19:10:36.888Z,16.62
2019-05-19T19:13:05.910Z,26.37
2019-05-19T19:15:34.982Z,11.97
2019-05-19T19:18:04.316Z,13.35
2019-05-19T19:20:34.646Z,13.30
2019-05-19T19:25:34.103Z,11.88
2019-05-19T19:28:03.495Z,12.28
2019-05-19T19:30:32.592Z,19.42
2019-05-19T19:33:01.698Z,17.60
2019-05-19T19:40:33.496Z,21.55
2019-05-19T19:43:02.524Z,16.50
2019-05-19T19:45:31.726Z,14.40
2019-05-19T19:48:00.737Z,15.10
2019-05-19T19:53:01.058Z,16.73
2019-05-19T19:55:30.330Z,14.45
2019-05-19T19:57:59.448Z,13.20
2019-05-19T20:00:44.155Z,16.30
2019-05-19T20:03:13.592Z,14.55
2019-05-19T20:05:45.706Z,13.65
2019-05-19T20:08:17.569Z,14.13
2019-05-19T20:13:18.579Z,12.47
2019-05-19T20:18:16.164Z,12.18
2019-05-19T20:20:45.331Z,12.80
2019-05-19T20:23:14.127Z,12.20
2019-05-19T20:25:43.320Z,10.60
2019-05-19T20:28:12.798Z,14.85
2019-05-19T20:33:11.059Z,11.57
2019-05-19T20:35:40.933Z,11.65
2019-05-19T20:38:12.785Z,12.47
2019-05-19T20:43:12.770Z,14.15
2019-05-19T20:48:10.955Z,12.90
2019-05-19T20:50:40.444Z,13.58
2019-05-19T20:53:10.593Z,18.42
2019-05-19T20:55:39.817Z,19.27
2019-05-19T20:58:08.985Z,17.73
2019-05-19T21:00:49.535Z,27.07
2019-05-19T21:06:55.729Z,29.02
2019-05-19T21:09:24.714Z,14.78
2019-05-19T21:11:53.739Z,14.93
2019-05-19T21:16:51.363Z,17.87
2019-05-19T21:19:20.469Z,16.75
2019-05-19T21:21:49.827Z,18.50
2019-05-19T21:24:18.723Z,16.32
2019-05-19T21:29:16.130Z,34.33
2019-05-19T21:31:45.137Z,23.55
2019-05-19T21:34:14.061Z,32.85
2019-05-19T21:36:43.732Z,23.35
2019-05-19T21:39:14.605Z,17.23
2019-05-19T21:41:43.767Z,16.97
2019-05-19T21:44:13.886Z,18.87
2019-05-19T21:46:43.603Z,29.57
2019-05-19T21:51:42.446Z,16.50
2019-05-19T21:54:12.028Z,20.02
2019-05-19T21:56:41.607Z,22.55
2019-05-19T21:59:11.174Z,16.87
2019-05-19T22:01:40.618Z,12.55
2019-05-19T22:04:10.325Z,13.40
2019-05-19T22:06:41.609Z,11.33
2019-05-19T22:09:11.495Z,11.80
2019-05-19T22:11:41.437Z,10.03
2019-05-19T22:14:11.433Z,11.73
2019-05-19T22:16:40.986Z,9.80
2019-05-19T22:19:10.485Z,13.85
2019-05-19T22:21:41.095Z,9.68
2019-05-19T22:24:10.406Z,12.03
2019-05-19T22:26:39.595Z,11.78
2019-05-19T22:29:08.870Z,12.68
2019-05-19T22:31:38.133Z,20.00
2019-05-19T22:34:07.989Z,14.73
2019-05-19T22:36:37.486Z,37.67
2019-05-19T22:39:07.123Z,50.95
2019-05-19T22:41:37.075Z,30.20
2019-05-19T22:44:06.148Z,16.50
2019-05-19T22:46:35.459Z,19.60
2019-05-19T22:49:04.734Z,11.20
2019-05-19T22:51:33.734Z,13.13
2019-05-19T22:56:30.929Z,9.45
2019-05-19T22:59:00.431Z,9.40
2019-05-19T23:01:29.569Z,9.40
2019-05-19T23:03:58.930Z,9.40
2019-05-19T23:06:27.920Z,11.18
2019-05-19T23:08:57.450Z,8.65
2019-05-19T23:11:26.562Z,8.33
2019-05-19T23:13:56.707Z,10.50
2019-05-19T23:18:54.405Z,10.30
2019-05-19T23:21:23.553Z,8.18
2019-05-19T23:23:53.930Z,8.80
2019-05-19T23:26:23.214Z,7.10
2019-05-19T23:28:52.298Z,7.75
2019-05-19T23:31:21.410Z,7.87
2019-05-19T23:33:50.553Z,7.37
2019-05-19T23:36:19.578Z,10.95
2019-05-19T23:38:48.741Z,11.15
2019-05-19T23:43:46.152Z,13.03
2019-05-19T23:46:15.303Z,9.18
2019-05-19T23:48:44.580Z,10.58
2019-05-19T23:51:13.977Z,10.90
2019-05-19T23:53:43.522Z,10.70
2019-05-19T23:56:12.698Z,9.38
2019-05-19T23:58:42.049Z,8.25
